createdAt,value
2018-10-09T00:02:07.121Z,101583.38
2018-10-09T00:04:36.202Z,101587.05
2018-10-09T00:07:05.138Z,101583.98
2018-10-09T00:09:34.006Z,101578.33
2018-10-09T00:12:09.349Z,101578.96
2018-10-09T00:14:38.226Z,101580.03
2018-10-09T00:17:07.172Z,101578.17
2018-10-09T00:19:36.113Z,101582.95
2018-10-09T00:22:04.986Z,101580.89
2018-10-09T00:24:33.875Z,101577.39
2018-10-09T00:27:03.014Z,101576.30
2018-10-09T00:29:31.882Z,101576.42
2018-10-09T00:32:00.739Z,101571.48
2018-10-09T00:34:29.857Z,101575.06
2018-10-09T00:36:58.750Z,101572.37
2018-10-09T00:39:27.617Z,101568.06
2018-10-09T00:41:56.550Z,101579.45
2018-10-09T00:44:25.452Z,101567.95
2018-10-09T00:46:54.507Z,101578.11
2018-10-09T00:49:23.533Z,101573.81
2018-10-09T00:51:52.441Z,101576.63
2018-10-09T00:54:21.306Z,101573.67
2018-10-09T00:56:50.178Z,101579.48
2018-10-09T00:59:19.029Z,101573.83
2018-10-09T01:01:47.910Z,101580.91
2018-10-09T01:04:16.983Z,101586.34
2018-10-09T01:06:46.018Z,101581.90
2018-10-09T01:09:14.992Z,101586.11
2018-10-09T01:11:43.841Z,101586.88
2018-10-09T01:14:12.810Z,101583.53
2018-10-09T01:16:41.645Z,101582.67
2018-10-09T01:19:10.733Z,101592.98
2018-10-09T01:21:39.618Z,101588.95
2018-10-09T01:24:08.532Z,101590.80
2018-10-09T01:26:37.553Z,101592.10
2018-10-09T01:29:06.618Z,101591.91
2018-10-09T01:31:35.486Z,101596.59
2018-10-09T01:34:04.377Z,101595.09
2018-10-09T01:36:33.394Z,101598.44
2018-10-09T01:39:02.342Z,101598.44
2018-10-09T01:41:31.254Z,101592.38
2018-10-09T01:44:00.166Z,101596.02
2018-10-09T01:46:29.031Z,101593.03
2018-10-09T01:48:57.905Z,101595.83
2018-10-09T01:51:26.818Z,101593.03
2018-10-09T01:53:55.645Z,101596.84
2018-10-09T01:56:24.571Z,101598.33
2018-10-09T01:58:53.447Z,101596.11
2018-10-09T02:01:22.416Z,101590.80
2018-10-09T02:03:51.306Z,101598.98
2018-10-09T02:06:20.174Z,101598.02
2018-10-09T02:08:49.053Z,101601.02
2018-10-09T02:11:18.034Z,101600.29
2018-10-09T02:13:46.861Z,101593.19
2018-10-09T02:16:15.815Z,101599.79
2018-10-09T02:18:44.766Z,101602.33
2018-10-09T02:21:13.630Z,101596.26
2018-10-09T02:23:42.554Z,101599.33
2018-10-09T02:26:11.485Z,101595.41
2018-10-09T02:28:40.377Z,101596.91
2018-10-09T02:31:09.297Z,101593.45
2018-10-09T02:33:38.277Z,101599.71
2018-10-09T02:36:07.331Z,101600.63
2018-10-09T02:38:36.297Z,101599.90
2018-10-09T02:41:06.458Z,101591.96
2018-10-09T02:43:35.301Z,101601.02
2018-10-09T02:46:04.214Z,101594.75
2018-10-09T02:48:33.986Z,101596.72
2018-10-09T02:51:02.866Z,101603.36
2018-10-09T02:53:31.719Z,101598.28
2018-10-09T02:56:00.646Z,101599.05
2018-10-09T02:58:29.482Z,101606.87
2018-10-09T03:00:58.382Z,101599.41
2018-10-09T03:03:27.324Z,101598.73
2018-10-09T03:05:56.176Z,101604.78
2018-10-09T03:08:25.058Z,101598.91
2018-10-09T03:10:53.958Z,101602.98
2018-10-09T03:13:22.829Z,101601.33
2018-10-09T03:15:53.126Z,101604.65
2018-10-09T03:18:22.005Z,101598.05
2018-10-09T03:20:50.877Z,101599.36
2018-10-09T03:23:19.663Z,101600.36
2018-10-09T03:25:48.533Z,101595.33
2018-10-09T03:28:17.486Z,101609.00
2018-10-09T03:30:46.582Z,101600.36
2018-10-09T03:33:15.497Z,101605.88
2018-10-09T03:35:44.543Z,101604.97
2018-10-09T03:38:13.391Z,101603.28
2018-10-09T03:40:42.301Z,101601.84
2018-10-09T03:43:11.233Z,101603.41
2018-10-09T03:45:40.093Z,101604.06
2018-10-09T03:48:09.014Z,101599.62
2018-10-09T03:50:38.002Z,101605.31
2018-10-09T03:53:06.934Z,101603.73
2018-10-09T03:55:35.854Z,101601.12
2018-10-09T03:58:04.783Z,101605.37
2018-10-09T04:00:33.674Z,101604.08
2018-10-09T04:03:02.563Z,101605.09
2018-10-09T04:05:31.570Z,101609.64
2018-10-09T04:08:00.488Z,101606.02
2018-10-09T04:10:29.376Z,101610.16
2018-10-09T04:12:58.347Z,101608.47
2018-10-09T04:15:27.223Z,101613.88
2018-10-09T04:17:56.158Z,101616.29
2018-10-09T04:20:25.122Z,101610.23
2018-10-09T04:22:53.962Z,101619.40
2018-10-09T04:25:22.857Z,101617.97
2018-10-09T04:27:51.731Z,101623.21
2018-10-09T04:30:20.530Z,101618.40
2018-10-09T04:32:49.435Z,101619.69
2018-10-09T04:35:19.785Z,101612.78
2018-10-09T04:37:48.717Z,101620.34
2018-10-09T04:40:17.553Z,101623.80
2018-10-09T04:42:46.507Z,101626.81
2018-10-09T04:45:15.448Z,101630.55
2018-10-09T04:47:44.467Z,101614.62
2018-10-09T04:50:20.280Z,101634.22
2018-10-09T04:52:49.255Z,101635.06
2018-10-09T04:55:18.150Z,101636.76
2018-10-09T04:57:47.227Z,101643.48
2018-10-09T05:00:16.116Z,101644.25
2018-10-09T05:02:45.053Z,101644.33
2018-10-09T05:05:14.167Z,101650.24
2018-10-09T05:07:43.068Z,101652.47
2018-10-09T05:10:11.934Z,101651.02
2018-10-09T05:12:40.824Z,101650.83
2018-10-09T05:15:09.714Z,101651.09
2018-10-09T05:17:38.887Z,101651.59
2018-10-09T05:20:09.726Z,101659.15
2018-10-09T05:22:39.045Z,101658.72
2018-10-09T05:25:08.003Z,101657.30
2018-10-09T05:27:37.107Z,101664.47
2018-10-09T05:30:06.066Z,101665.49
2018-10-09T05:32:35.042Z,101674.17
2018-10-09T05:35:03.888Z,101662.21
2018-10-09T05:37:32.778Z,101682.15
2018-10-09T05:40:01.781Z,101673.06
2018-10-09T05:42:30.864Z,101681.44
2018-10-09T05:44:59.887Z,101675.97
2018-10-09T05:47:28.813Z,101684.36
2018-10-09T05:49:57.842Z,101676.80
2018-10-09T05:52:26.995Z,101683.52
2018-10-09T05:54:56.973Z,101683.64
2018-10-09T05:57:25.996Z,101683.39
2018-10-09T05:59:54.871Z,101693.84
2018-10-09T06:02:23.818Z,101680.95
2018-10-09T06:04:52.812Z,101687.27
2018-10-09T06:07:22.046Z,101677.64
2018-10-09T06:09:51.036Z,101697.08
2018-10-09T06:12:19.903Z,101708.90
2018-10-09T06:14:48.802Z,101706.50
2018-10-09T06:17:17.673Z,101698.89
2018-10-09T06:19:46.497Z,101705.60
2018-10-09T06:22:15.428Z,101691.97
2018-10-09T06:24:44.415Z,101678.59
2018-10-09T06:27:13.327Z,101700.39
2018-10-09T06:29:42.278Z,101698.52
2018-10-09T06:32:11.379Z,101717.41
2018-10-09T06:34:40.373Z,101694.63
2018-10-09T06:37:10.535Z,101731.53
2018-10-09T06:39:39.411Z,101719.86
2018-10-09T06:42:08.328Z,101728.96
2018-10-09T06:44:37.286Z,101719.48
2018-10-09T06:47:06.167Z,101741.36
2018-10-09T06:49:35.107Z,101723.76
2018-10-09T06:52:04.090Z,101726.77
2018-10-09T06:54:33.004Z,101711.11
2018-10-09T06:57:02.178Z,101724.33
2018-10-09T06:59:31.103Z,101727.98
2018-10-09T07:02:00.022Z,101724.14
2018-10-09T07:04:30.347Z,101740.41
2018-10-09T07:06:59.187Z,101710.52
2018-10-09T07:09:28.214Z,101716.93
2018-10-09T07:11:58.456Z,101722.03
2018-10-09T07:14:27.339Z,101732.67
2018-10-09T07:16:56.285Z,101735.61
2018-10-09T07:19:25.205Z,101740.72
2018-10-09T07:21:54.115Z,101742.64
2018-10-09T07:24:23.064Z,101730.09
2018-10-09T07:26:52.141Z,101719.48
2018-10-09T07:29:21.187Z,101728.84
2018-10-09T07:31:50.795Z,101736.86
2018-10-09T07:34:23.329Z,101742.48
2018-10-09T07:36:53.171Z,101755.14
2018-10-09T07:39:29.347Z,101738.24
2018-10-09T07:42:01.386Z,101740.00
2018-10-09T07:44:37.809Z,101733.03
2018-10-09T07:47:13.647Z,101723.73
2018-10-09T07:49:49.792Z,101729.59
2018-10-09T07:52:22.650Z,101733.55
2018-10-09T07:54:58.311Z,101728.48
2018-10-09T07:57:31.478Z,101738.77
2018-10-09T08:00:03.322Z,101737.50
2018-10-09T08:02:37.040Z,101745.70
2018-10-09T08:05:09.609Z,101734.16
2018-10-09T08:10:38.044Z,101749.22
2018-10-09T08:13:12.176Z,101750.83
2018-10-09T08:15:45.464Z,101746.82
2018-10-09T08:18:20.136Z,101744.53
2018-10-09T08:20:53.094Z,101741.08
2018-10-09T08:23:25.781Z,101741.33
2018-10-09T08:25:56.690Z,101737.93
2018-10-09T08:28:28.820Z,101735.77
2018-10-09T08:31:01.018Z,101737.31
2018-10-09T08:33:37.660Z,101739.55
2018-10-09T08:36:11.130Z,101733.95
2018-10-09T08:38:49.195Z,101746.13
2018-10-09T08:41:20.474Z,101736.11
2018-10-09T08:44:00.526Z,101725.56
2018-10-09T08:46:38.528Z,101726.28
2018-10-09T08:49:12.262Z,101718.78
2018-10-09T08:51:50.645Z,101732.13
2018-10-09T08:54:24.975Z,101744.34
2018-10-09T08:56:56.501Z,101731.19
2018-10-09T08:59:25.935Z,101745.30
2018-10-09T09:02:02.103Z,101747.05
2018-10-09T09:04:38.053Z,101748.58
2018-10-09T09:07:10.870Z,101749.97
2018-10-09T09:09:43.061Z,101745.11
2018-10-09T09:12:15.473Z,101738.30
2018-10-09T09:14:47.387Z,101731.36
2018-10-09T09:17:24.001Z,101743.52
2018-10-09T09:19:58.459Z,101741.89
2018-10-09T09:22:30.987Z,101733.09
2018-10-09T09:25:04.721Z,101738.09
2018-10-09T09:27:37.721Z,101739.44
2018-10-09T09:30:08.993Z,101737.94
2018-10-09T09:32:40.740Z,101749.45
2018-10-09T09:35:17.452Z,101723.09
2018-10-09T09:37:53.970Z,101723.81
2018-10-09T09:40:26.893Z,101734.86
2018-10-09T09:42:59.610Z,101740.25
2018-10-09T09:45:35.593Z,101744.84
2018-10-09T09:50:42.865Z,101734.69
2018-10-09T09:53:15.918Z,101741.67
2018-10-09T09:55:46.796Z,101740.44
2018-10-09T09:58:17.723Z,101739.33
2018-10-09T10:00:56.801Z,101735.73
2018-10-09T10:03:29.073Z,101710.14
2018-10-09T10:06:03.387Z,101735.83
2018-10-09T10:11:12.960Z,101735.09
2018-10-09T10:13:52.720Z,101721.87
2018-10-09T10:16:26.226Z,101729.69
2018-10-09T10:18:58.605Z,101725.82
2018-10-09T10:21:32.735Z,101721.68
2018-10-09T10:24:03.924Z,101713.89
2018-10-09T10:26:41.052Z,101717.91
2018-10-09T10:29:12.780Z,101717.73
2018-10-09T10:31:54.665Z,101725.40
2018-10-09T10:34:33.252Z,101722.06
2018-10-09T10:37:08.133Z,101722.07
2018-10-09T10:39:41.057Z,101718.33
2018-10-09T10:42:17.057Z,101712.47
2018-10-09T10:44:53.606Z,101717.30
2018-10-09T10:47:25.160Z,101717.00
2018-10-09T10:49:57.873Z,101711.73
2018-10-09T10:52:31.496Z,101713.98
2018-10-09T10:55:04.076Z,101703.33
2018-10-09T10:57:35.844Z,101709.84
2018-10-09T11:00:06.534Z,101709.64
2018-10-09T11:02:40.187Z,101711.42
2018-10-09T11:05:12.514Z,101713.86
2018-10-09T11:07:47.203Z,101713.27
2018-10-09T11:10:21.056Z,101713.14
2018-10-09T11:12:52.084Z,101706.91
2018-10-09T11:15:25.372Z,101706.91
2018-10-09T11:18:01.071Z,101707.87
2018-10-09T11:20:32.483Z,101714.16
2018-10-09T11:23:06.893Z,101703.69
2018-10-09T11:25:40.732Z,101701.98
2018-10-09T11:28:16.713Z,101714.23
2018-10-09T11:30:51.143Z,101702.87
2018-10-09T11:33:24.738Z,101703.23
2018-10-09T11:35:59.356Z,101691.72
2018-10-09T11:38:33.010Z,101696.64
2018-10-09T11:41:09.587Z,101701.07
2018-10-09T11:43:44.228Z,101696.14
2018-10-09T11:46:15.354Z,101694.78
2018-10-09T11:48:48.126Z,101694.27
2018-10-09T11:51:26.415Z,101682.50
2018-10-09T11:53:57.743Z,101695.83
2018-10-09T11:56:31.764Z,101689.50
2018-10-09T11:59:06.961Z,101682.52
2018-10-09T12:01:41.222Z,101689.45
2018-10-09T12:04:16.119Z,101699.05
2018-10-09T12:06:51.203Z,101683.77
2018-10-09T12:09:24.295Z,101683.84
2018-10-09T12:11:55.261Z,101685.78
2018-10-09T12:14:28.019Z,101683.87
2018-10-09T12:16:57.501Z,101683.02
2018-10-09T12:19:30.786Z,101684.11
2018-10-09T12:22:05.388Z,101690.91
2018-10-09T12:24:36.798Z,101683.48
2018-10-09T12:27:11.069Z,101684.41
2018-10-09T12:29:42.963Z,101687.70
2018-10-09T12:32:15.954Z,101686.69
2018-10-09T12:34:51.426Z,101693.07
2018-10-09T12:37:24.721Z,101684.52
2018-10-09T12:40:00.047Z,101692.00
2018-10-09T12:42:37.361Z,101692.61
2018-10-09T12:45:12.296Z,101690.34
2018-10-09T12:47:45.977Z,101690.64
2018-10-09T12:50:21.851Z,101685.55
2018-10-09T12:52:53.842Z,101692.14
2018-10-09T12:55:30.252Z,101685.58
2018-10-09T12:58:05.716Z,101689.33
2018-10-09T13:00:39.862Z,101694.30
2018-10-09T13:03:13.682Z,101671.77
2018-10-09T13:05:46.787Z,101681.80
2018-10-09T13:08:21.172Z,101677.52
2018-10-09T13:10:53.552Z,101688.58
2018-10-09T13:13:32.554Z,101703.22
2018-10-09T13:16:06.917Z,101690.08
2018-10-09T13:18:37.790Z,101694.73
2018-10-09T13:21:12.494Z,101687.05
2018-10-09T13:23:48.293Z,101694.53
2018-10-09T13:26:24.904Z,101687.13
2018-10-09T13:28:57.898Z,101690.25
2018-10-09T13:31:37.032Z,101686.31
2018-10-09T13:34:07.763Z,101681.03
2018-10-09T13:36:37.266Z,101678.23
2018-10-09T13:39:10.458Z,101678.38
2018-10-09T13:41:46.329Z,101686.73
2018-10-09T13:44:20.859Z,101685.22
2018-10-09T13:46:54.614Z,101676.22
2018-10-09T13:52:04.460Z,101673.64
2018-10-09T13:54:38.655Z,101679.23
2018-10-09T13:57:13.929Z,101677.94
2018-10-09T13:59:45.297Z,101682.66
2018-10-09T14:02:19.716Z,101680.94
2018-10-09T14:05:00.058Z,101680.13
2018-10-09T14:07:33.724Z,101678.73
2018-10-09T14:10:08.501Z,101692.03
2018-10-09T14:12:43.819Z,101681.12
2018-10-09T14:15:17.023Z,101683.56
2018-10-09T14:17:46.977Z,101678.71
2018-10-09T14:20:18.927Z,101685.52
2018-10-09T14:22:58.789Z,101672.59
2018-10-09T14:25:30.388Z,101685.03
2018-10-09T14:28:06.254Z,101681.02
2018-10-09T14:30:38.862Z,101681.57
2018-10-09T14:33:18.102Z,101677.20
2018-10-09T14:35:57.005Z,101676.80
2018-10-09T14:38:28.707Z,101681.92
2018-10-09T14:40:58.724Z,101671.94
2018-10-09T14:43:35.637Z,101672.03
2018-10-09T14:46:11.382Z,101675.82
2018-10-09T14:48:46.206Z,101679.41
2018-10-09T14:51:20.492Z,101675.67
2018-10-09T14:54:09.333Z,101682.05
2018-10-09T14:56:48.990Z,101683.50
2018-10-09T14:59:27.836Z,101671.61
2018-10-09T15:02:02.856Z,101684.41
2018-10-09T15:04:35.258Z,101687.61
2018-10-09T15:07:08.540Z,101683.03
2018-10-09T15:09:41.785Z,101691.88
2018-10-09T15:12:13.181Z,101689.95
2018-10-09T15:14:47.195Z,101693.86
2018-10-09T15:17:17.707Z,101694.45
2018-10-09T15:19:51.119Z,101688.09
2018-10-09T15:22:27.693Z,101695.14
2018-10-09T15:24:57.761Z,101691.73
2018-10-09T15:27:31.627Z,101696.53
2018-10-09T15:30:07.440Z,101579.84
2018-10-09T15:32:42.651Z,101699.33
2018-10-09T15:35:16.783Z,101698.88
2018-10-09T15:38:04.586Z,101703.55
2018-10-09T15:40:38.732Z,101710.30
2018-10-09T15:43:10.582Z,101704.92
2018-10-09T15:45:52.658Z,101711.86
2018-10-09T15:48:24.637Z,101702.30
2018-10-09T15:51:01.187Z,101710.89
2018-10-09T15:53:32.635Z,101715.40
2018-10-09T15:56:08.841Z,101716.23
2018-10-09T15:58:41.671Z,101715.99
2018-10-09T16:01:16.850Z,101720.41
2018-10-09T16:03:50.767Z,101726.38
2018-10-09T16:09:03.074Z,101724.81
2018-10-09T16:11:39.031Z,101730.55
2018-10-09T16:14:09.038Z,101738.63
2018-10-09T16:16:43.445Z,101743.05
2018-10-09T16:19:13.800Z,101745.30
2018-10-09T16:21:53.035Z,101745.44
2018-10-09T16:24:25.487Z,101748.41
2018-10-09T16:26:55.881Z,101752.69
2018-10-09T16:29:27.323Z,101750.73
2018-10-09T16:32:03.196Z,101752.05
2018-10-09T16:34:37.802Z,101754.30
2018-10-09T16:37:10.706Z,101752.84
2018-10-09T16:39:44.371Z,101757.82
2018-10-09T16:42:17.022Z,101753.98
2018-10-09T16:44:48.833Z,101758.58
2018-10-09T16:47:22.575Z,101752.13
2018-10-09T16:49:56.869Z,101757.38
2018-10-09T16:52:31.066Z,101755.70
2018-10-09T16:55:10.321Z,101758.48
2018-10-09T16:57:42.562Z,101759.03
2018-10-09T17:00:18.869Z,101759.76
2018-10-09T17:02:50.772Z,101766.74
2018-10-09T17:05:22.804Z,101763.76
2018-10-09T17:07:57.331Z,101772.18
2018-10-09T17:10:27.095Z,101774.00
2018-10-09T17:13:04.107Z,101710.56
2018-10-09T17:15:34.940Z,101779.41
2018-10-09T17:18:15.003Z,101783.72
2018-10-09T17:20:51.059Z,101784.90
2018-10-09T17:23:23.632Z,101788.19
2018-10-09T17:26:00.396Z,101787.60
2018-10-09T17:28:37.037Z,101788.07
2018-10-09T17:31:13.958Z,101788.56
2018-10-09T17:33:48.449Z,101795.57
2018-10-09T17:36:22.865Z,101799.67
2018-10-09T17:38:55.696Z,101797.90
2018-10-09T17:41:28.714Z,101798.45
2018-10-09T17:44:00.484Z,101800.34
2018-10-09T17:46:37.750Z,101807.84
2018-10-09T17:49:11.175Z,101813.42
2018-10-09T17:51:41.805Z,101804.99
2018-10-09T17:54:21.644Z,101801.94
2018-10-09T17:56:57.662Z,101806.41
2018-10-09T17:59:35.544Z,101799.34
2018-10-09T18:02:07.545Z,101799.81
2018-10-09T18:04:45.385Z,101808.57
2018-10-09T18:07:19.581Z,101806.70
2018-10-09T18:09:51.760Z,101814.30
2018-10-09T18:12:23.188Z,101812.14
2018-10-09T18:14:58.027Z,101816.91
2018-10-09T18:24:31.221Z,101826.07
2018-10-09T18:27:08.697Z,101829.54
2018-10-09T18:29:40.779Z,101832.27
2018-10-09T18:32:11.919Z,101835.87
2018-10-09T18:34:58.088Z,101834.42
2018-10-09T18:37:33.393Z,101831.68
2018-10-09T18:40:06.600Z,101837.30
2018-10-09T18:42:37.954Z,101840.97
2018-10-09T18:45:13.083Z,101842.23
2018-10-09T18:47:50.253Z,101840.66
2018-10-09T18:50:34.734Z,101839.91
2018-10-09T18:53:08.471Z,101850.55
2018-10-09T18:55:42.473Z,101845.42
2018-10-09T18:58:18.258Z,101848.60
2018-10-09T19:00:59.103Z,101847.75
2018-10-09T19:03:31.382Z,101848.41
2018-10-09T19:06:14.189Z,101856.82
2018-10-09T19:08:45.494Z,101856.91
2018-10-09T19:11:28.267Z,101855.14
2018-10-09T19:14:01.352Z,101856.73
2018-10-09T19:16:37.558Z,101860.82
2018-10-09T19:19:10.604Z,101862.59
2018-10-09T19:21:44.101Z,101861.39
2018-10-09T19:24:19.833Z,101854.86
2018-10-09T19:26:56.148Z,101852.40
2018-10-09T19:29:28.443Z,101860.95
2018-10-09T19:32:00.954Z,101861.06
2018-10-09T19:34:34.397Z,101864.03
2018-10-09T19:37:07.504Z,101867.48
2018-10-09T19:39:42.085Z,101871.22
2018-10-09T19:42:14.325Z,101869.03
2018-10-09T19:44:45.386Z,101872.31
2018-10-09T19:47:20.490Z,101864.63
2018-10-09T19:49:56.641Z,101867.91
2018-10-09T19:52:34.233Z,101864.63
2018-10-09T19:55:16.717Z,101871.36
2018-10-09T19:58:00.835Z,101870.77
2018-10-09T20:00:34.590Z,101870.06
2018-10-09T20:03:10.772Z,101864.63
2018-10-09T20:05:43.968Z,101872.81
2018-10-09T20:08:23.361Z,101729.57
2018-10-09T20:11:04.111Z,101879.89
2018-10-09T20:13:36.753Z,101877.50
2018-10-09T20:16:09.530Z,101873.45
2018-10-09T20:18:49.722Z,101871.27
2018-10-09T20:21:23.402Z,101873.38
2018-10-09T20:23:54.239Z,101876.02
2018-10-09T20:26:30.467Z,101869.27
2018-10-09T20:29:04.614Z,101867.97
2018-10-09T20:31:45.449Z,101862.12
2018-10-09T20:34:25.506Z,101862.42
2018-10-09T20:37:02.932Z,101861.86
2018-10-09T20:39:47.960Z,101857.59
2018-10-09T20:42:23.537Z,101861.22
2018-10-09T20:45:03.028Z,101859.63
2018-10-09T20:47:39.269Z,101858.58
2018-10-09T20:50:17.859Z,101855.66
2018-10-09T20:52:51.611Z,101854.59
2018-10-09T20:55:27.431Z,101856.28
2018-10-09T20:57:57.725Z,101853.13
2018-10-09T21:00:30.805Z,101860.42
2018-10-09T21:03:06.705Z,101860.31
2018-10-09T21:05:37.561Z,101856.19
2018-10-09T21:08:25.801Z,101863.05
2018-10-09T21:10:58.358Z,101858.39
2018-10-09T21:13:33.146Z,101856.02
2018-10-09T21:18:45.264Z,101855.85
2018-10-09T21:21:22.413Z,101855.72
2018-10-09T21:26:41.668Z,101852.22
2018-10-09T21:29:12.424Z,101851.92
2018-10-09T21:31:54.228Z,101858.02
2018-10-09T21:34:29.372Z,101859.34
2018-10-09T21:37:01.470Z,101858.85
2018-10-09T21:39:37.718Z,101863.56
2018-10-09T21:42:18.010Z,101856.39
2018-10-09T21:44:54.563Z,101861.47
2018-10-09T21:47:26.975Z,101854.73
2018-10-09T21:50:06.361Z,101862.28
2018-10-09T21:52:49.134Z,101848.75
2018-10-09T21:55:22.133Z,101852.83
2018-10-09T22:00:39.876Z,101854.62
2018-10-09T22:03:12.929Z,101857.58
2018-10-09T22:05:50.158Z,101851.72
2018-10-09T22:08:28.973Z,101854.80
2018-10-09T22:11:01.024Z,101854.48
2018-10-09T22:13:34.621Z,101863.13
2018-10-09T22:16:09.348Z,101856.92
2018-10-09T22:18:51.304Z,101855.78
2018-10-09T22:21:25.480Z,101855.22
2018-10-09T22:24:02.444Z,101853.98
2018-10-09T22:26:36.018Z,101861.00
2018-10-09T22:29:08.238Z,101854.20
2018-10-09T22:31:46.531Z,101857.78
2018-10-09T22:34:29.515Z,101860.28
2018-10-09T22:37:04.116Z,101854.92
2018-10-09T22:39:37.849Z,101852.03
2018-10-09T22:42:17.657Z,101853.55
2018-10-09T22:44:54.436Z,101858.77
2018-10-09T22:47:29.855Z,101862.61
2018-10-09T22:50:05.727Z,101856.90
2018-10-09T22:52:37.748Z,101852.19
2018-10-09T22:55:10.795Z,101854.19
2018-10-09T22:57:49.175Z,101854.97
2018-10-09T23:00:22.931Z,101858.92
2018-10-09T23:02:53.958Z,101860.50
2018-10-09T23:05:28.444Z,101855.29
2018-10-09T23:08:07.603Z,101860.75
2018-10-09T23:10:41.465Z,101865.30
2018-10-09T23:13:14.040Z,101866.00
2018-10-09T23:15:51.824Z,101858.97
2018-10-09T23:18:26.417Z,101864.26
2018-10-09T23:21:02.474Z,101871.30
2018-10-09T23:23:32.839Z,101863.01
2018-10-09T23:26:06.288Z,101864.13
2018-10-09T23:28:40.618Z,101863.62
2018-10-09T23:31:18.127Z,101871.21
2018-10-09T23:33:55.015Z,101869.20
2018-10-09T23:36:30.427Z,101866.81
2018-10-09T23:39:01.497Z,101863.77
2018-10-09T23:41:32.339Z,101856.33
2018-10-09T23:44:11.839Z,101857.99
2018-10-09T23:46:48.621Z,101847.48
2018-10-09T23:49:29.133Z,101851.13
2018-10-09T23:52:08.551Z,101849.02
2018-10-09T23:54:48.138Z,101844.89
2018-10-09T23:57:20.025Z,101850.53
2018-10-09T23:59:50.960Z,101846.91
